Terminal Aerodrome Forecast
Issued by NWS

Home | Current Version | Previous Version | Text Only | Print | Product List | Glossary On
Versions: 1 2 3 4 5 6 7 8 9 10 11 12 13 14 15 16 17 18 19 20 21 22 23 24 25 26
000
FTUS42 KMFL 170256 AAB
TAFOPF
TAF AMD
KOPF 170256Z 1703/1724 07006KT P6SM VCSH SCT025 BKN035
      TEMPO 1709/1713 BKN025
     FM171300 09010KT P6SM VCSH BKN025
     FM171700 10012KT P6SM VCTS BKN035CB=

USA.gov is the U.S. government's official web portal to all federal, state and local government web resources and services.